sensor_id;sensor_type;location;lat;lon;timestamp;P1;durP1;ratioP1;P2;durP2;ratioP2
40959;SDS011;27842;52.272;8.052;2022-07-30T00:01:51;11.82;;;4.30;;
40959;SDS011;27842;52.272;8.052;2022-07-30T00:04:17;16.80;;;4.85;;
40959;SDS011;27842;52.272;8.052;2022-07-30T00:06:43;12.38;;;3.95;;
40959;SDS011;27842;52.272;8.052;2022-07-30T00:09:09;11.07;;;4.47;;
40959;SDS011;27842;52.272;8.052;2022-07-30T00:11:35;12.68;;;4.13;;
40959;SDS011;27842;52.272;8.052;2022-07-30T00:14:00;10.75;;;4.15;;
40959;SDS011;27842;52.272;8.052;2022-07-30T00:16:26;12.25;;;4.18;;
40959;SDS011;27842;52.272;8.052;2022-07-30T00:18:52;12.20;;;4.00;;
40959;SDS011;27842;52.272;8.052;2022-07-30T00:21:18;9.60;;;4.22;;
40959;SDS011;27842;52.272;8.052;2022-07-30T00:23:43;11.90;;;4.47;;
40959;SDS011;27842;52.272;8.052;2022-07-30T00:26:09;12.60;;;4.57;;
40959;SDS011;27842;52.272;8.052;2022-07-30T00:28:34;11.23;;;4.43;;
40959;SDS011;27842;52.272;8.052;2022-07-30T00:31:00;12.30;;;4.50;;
40959;SDS011;27842;52.272;8.052;2022-07-30T00:33:26;13.23;;;4.65;;
40959;SDS011;27842;52.272;8.052;2022-07-30T00:35:52;12.38;;;4.60;;
40959;SDS011;27842;52.272;8.052;2022-07-30T00:38:17;12.77;;;4.43;;
40959;SDS011;27842;52.272;8.052;2022-07-30T00:40:45;11.02;;;4.55;;
40959;SDS011;27842;52.272;8.052;2022-07-30T00:43:14;11.77;;;4.55;;
40959;SDS011;27842;52.272;8.052;2022-07-30T00:45:42;11.57;;;4.57;;
40959;SDS011;27842;52.272;8.052;2022-07-30T00:48:09;12.05;;;4.20;;
40959;SDS011;27842;52.272;8.052;2022-07-30T00:50:35;12.05;;;4.53;;
40959;SDS011;27842;52.272;8.052;2022-07-30T00:53:01;11.25;;;4.63;;
40959;SDS011;27842;52.272;8.052;2022-07-30T00:55:27;12.30;;;4.55;;
40959;SDS011;27842;52.272;8.052;2022-07-30T00:57:53;12.48;;;4.70;;
40959;SDS011;27842;52.272;8.052;2022-07-30T01:00:19;11.82;;;4.30;;
40959;SDS011;27842;52.272;8.052;2022-07-30T01:02:45;12.07;;;4.15;;
40959;SDS011;27842;52.272;8.052;2022-07-30T01:05:10;12.27;;;4.35;;
40959;SDS011;27842;52.272;8.052;2022-07-30T01:07:36;11.27;;;4.72;;
40959;SDS011;27842;52.272;8.052;2022-07-30T01:10:02;10.30;;;4.40;;
40959;SDS011;27842;52.272;8.052;2022-07-30T01:12:29;12.82;;;4.47;;
40959;SDS011;27842;52.272;8.052;2022-07-30T01:14:56;12.07;;;4.75;;
40959;SDS011;27842;52.272;8.052;2022-07-30T01:17:23;11.38;;;4.32;;
40959;SDS011;27842;52.272;8.052;2022-07-30T01:19:50;13.68;;;4.63;;
40959;SDS011;27842;52.272;8.052;2022-07-30T01:27:49;13.43;;;4.40;;
40959;SDS011;27842;52.272;8.052;2022-07-30T01:30:21;14.30;;;4.50;;
40959;SDS011;27842;52.272;8.052;2022-07-30T01:32:49;12.55;;;4.65;;
40959;SDS011;27842;52.272;8.052;2022-07-30T01:35:17;13.60;;;5.10;;
40959;SDS011;27842;52.272;8.052;2022-07-30T01:37:45;11.75;;;4.72;;
40959;SDS011;27842;52.272;8.052;2022-07-30T01:40:13;12.27;;;4.28;;
40959;SDS011;27842;52.272;8.052;2022-07-30T01:42:39;13.65;;;4.93;;
40959;SDS011;27842;52.272;8.052;2022-07-30T01:45:06;12.50;;;5.43;;
40959;SDS011;27842;52.272;8.052;2022-07-30T01:47:33;13.70;;;5.03;;
40959;SDS011;27842;52.272;8.052;2022-07-30T01:50:01;12.67;;;5.70;;
40959;SDS011;27842;52.272;8.052;2022-07-30T01:52:30;13.25;;;5.47;;
40959;SDS011;27842;52.272;8.052;2022-07-30T01:54:57;15.63;;;6.53;;
40959;SDS011;27842;52.272;8.052;2022-07-30T01:57:24;13.35;;;6.07;;
40959;SDS011;27842;52.272;8.052;2022-07-30T01:59:51;16.08;;;6.60;;
40959;SDS011;27842;52.272;8.052;2022-07-30T02:02:22;14.45;;;6.10;;
40959;SDS011;27842;52.272;8.052;2022-07-30T02:04:48;15.15;;;6.20;;
40959;SDS011;27842;52.272;8.052;2022-07-30T02:07:26;15.60;;;6.25;;
40959;SDS011;27842;52.272;8.052;2022-07-30T02:09:54;12.90;;;5.68;;
40959;SDS011;27842;52.272;8.052;2022-07-30T02:12:25;12.18;;;5.22;;
40959;SDS011;27842;52.272;8.052;2022-07-30T02:17:35;11.60;;;5.03;;
40959;SDS011;27842;52.272;8.052;2022-07-30T02:20:15;11.95;;;4.88;;
40959;SDS011;27842;52.272;8.052;2022-07-30T02:22:41;12.75;;;5.07;;
40959;SDS011;27842;52.272;8.052;2022-07-30T02:25:12;12.38;;;4.60;;
40959;SDS011;27842;52.272;8.052;2022-07-30T02:27:41;15.07;;;5.20;;
40959;SDS011;27842;52.272;8.052;2022-07-30T02:30:10;12.80;;;4.57;;
40959;SDS011;27842;52.272;8.052;2022-07-30T02:32:37;12.50;;;4.80;;
40959;SDS011;27842;52.272;8.052;2022-07-30T02:35:07;12.15;;;5.40;;
40959;SDS011;27842;52.272;8.052;2022-07-30T02:37:38;12.20;;;4.88;;
40959;SDS011;27842;52.272;8.052;2022-07-30T02:40:05;11.27;;;4.63;;
40959;SDS011;27842;52.272;8.052;2022-07-30T02:42:31;12.70;;;5.18;;
40959;SDS011;27842;52.272;8.052;2022-07-30T02:44:57;16.35;;;5.45;;
40959;SDS011;27842;52.272;8.052;2022-07-30T02:47:25;13.45;;;5.40;;
40959;SDS011;27842;52.272;8.052;2022-07-30T02:49:51;14.45;;;5.13;;
40959;SDS011;27842;52.272;8.052;2022-07-30T02:52:18;13.65;;;4.97;;
40959;SDS011;27842;52.272;8.052;2022-07-30T02:54:45;12.25;;;5.25;;
40959;SDS011;27842;52.272;8.052;2022-07-30T02:57:14;13.65;;;5.28;;
40959;SDS011;27842;52.272;8.052;2022-07-30T02:59:43;14.48;;;5.90;;
40959;SDS011;27842;52.272;8.052;2022-07-30T03:02:11;14.10;;;5.40;;
40959;SDS011;27842;52.272;8.052;2022-07-30T03:04:37;13.75;;;5.05;;
40959;SDS011;27842;52.272;8.052;2022-07-30T03:07:05;13.60;;;4.82;;
40959;SDS011;27842;52.272;8.052;2022-07-30T03:09:31;11.98;;;4.90;;
40959;SDS011;27842;52.272;8.052;2022-07-30T03:11:57;12.65;;;5.43;;
40959;SDS011;27842;52.272;8.052;2022-07-30T03:14:25;12.30;;;5.07;;
40959;SDS011;27842;52.272;8.052;2022-07-30T03:16:52;14.65;;;5.30;;
40959;SDS011;27842;52.272;8.052;2022-07-30T03:19:21;15.20;;;5.20;;
40959;SDS011;27842;52.272;8.052;2022-07-30T03:21:49;13.57;;;5.32;;
40959;SDS011;27842;52.272;8.052;2022-07-30T03:24:18;14.88;;;5.68;;
40959;SDS011;27842;52.272;8.052;2022-07-30T03:26:47;14.70;;;5.57;;
40959;SDS011;27842;52.272;8.052;2022-07-30T03:29:15;13.18;;;5.00;;
40959;SDS011;27842;52.272;8.052;2022-07-30T03:31:41;14.27;;;5.25;;
40959;SDS011;27842;52.272;8.052;2022-07-30T03:34:07;11.70;;;5.25;;
40959;SDS011;27842;52.272;8.052;2022-07-30T03:36:34;14.30;;;5.35;;
40959;SDS011;27842;52.272;8.052;2022-07-30T03:39:02;13.43;;;5.38;;
40959;SDS011;27842;52.272;8.052;2022-07-30T03:41:29;13.95;;;6.00;;
40959;SDS011;27842;52.272;8.052;2022-07-30T03:43:56;14.60;;;5.13;;
40959;SDS011;27842;52.272;8.052;2022-07-30T03:46:22;13.60;;;5.40;;
40959;SDS011;27842;52.272;8.052;2022-07-30T03:48:49;11.77;;;5.05;;
40959;SDS011;27842;52.272;8.052;2022-07-30T03:51:16;12.57;;;5.05;;
40959;SDS011;27842;52.272;8.052;2022-07-30T03:53:41;13.57;;;5.70;;
40959;SDS011;27842;52.272;8.052;2022-07-30T03:56:09;16.70;;;6.03;;
40959;SDS011;27842;52.272;8.052;2022-07-30T03:58:36;12.55;;;5.28;;
40959;SDS011;27842;52.272;8.052;2022-07-30T04:01:02;13.15;;;5.25;;
40959;SDS011;27842;52.272;8.052;2022-07-30T04:03:29;15.50;;;6.03;;
40959;SDS011;27842;52.272;8.052;2022-07-30T04:05:56;13.65;;;5.50;;
40959;SDS011;27842;52.272;8.052;2022-07-30T04:08:22;14.23;;;5.40;;
40959;SDS011;27842;52.272;8.052;2022-07-30T04:10:48;13.27;;;5.55;;
40959;SDS011;27842;52.272;8.052;2022-07-30T04:13:15;14.88;;;6.18;;
40959;SDS011;27842;52.272;8.052;2022-07-30T04:15:46;12.95;;;5.80;;
40959;SDS011;27842;52.272;8.052;2022-07-30T04:18:13;13.07;;;5.88;;
40959;SDS011;27842;52.272;8.052;2022-07-30T04:20:42;12.48;;;5.43;;
40959;SDS011;27842;52.272;8.052;2022-07-30T04:23:09;12.68;;;5.60;;
40959;SDS011;27842;52.272;8.052;2022-07-30T04:25:36;13.15;;;5.70;;
40959;SDS011;27842;52.272;8.052;2022-07-30T04:28:04;15.50;;;5.60;;
40959;SDS011;27842;52.272;8.052;2022-07-30T04:30:30;12.13;;;5.63;;
40959;SDS011;27842;52.272;8.052;2022-07-30T04:33:00;12.00;;;5.85;;
40959;SDS011;27842;52.272;8.052;2022-07-30T04:35:30;12.63;;;5.80;;
40959;SDS011;27842;52.272;8.052;2022-07-30T04:37:57;14.07;;;5.88;;
40959;SDS011;27842;52.272;8.052;2022-07-30T04:40:24;14.93;;;6.38;;
40959;SDS011;27842;52.272;8.052;2022-07-30T04:42:49;17.10;;;6.40;;
40959;SDS011;27842;52.272;8.052;2022-07-30T04:45:15;13.65;;;6.20;;
40959;SDS011;27842;52.272;8.052;2022-07-30T04:47:44;13.68;;;6.38;;
40959;SDS011;27842;52.272;8.052;2022-07-30T04:50:10;13.15;;;5.97;;
40959;SDS011;27842;52.272;8.052;2022-07-30T04:52:37;14.43;;;5.90;;
40959;SDS011;27842;52.272;8.052;2022-07-30T04:55:04;14.05;;;5.97;;
40959;SDS011;27842;52.272;8.052;2022-07-30T04:57:30;14.05;;;5.80;;
40959;SDS011;27842;52.272;8.052;2022-07-30T04:59:57;12.95;;;5.90;;
40959;SDS011;27842;52.272;8.052;2022-07-30T05:02:24;12.38;;;5.75;;
40959;SDS011;27842;52.272;8.052;2022-07-30T05:04:53;13.02;;;5.97;;
40959;SDS011;27842;52.272;8.052;2022-07-30T05:07:20;13.57;;;6.45;;
40959;SDS011;27842;52.272;8.052;2022-07-30T05:09:46;14.63;;;6.72;;
40959;SDS011;27842;52.272;8.052;2022-07-30T05:12:12;16.20;;;6.78;;
40959;SDS011;27842;52.272;8.052;2022-07-30T05:14:37;15.70;;;7.00;;
40959;SDS011;27842;52.272;8.052;2022-07-30T05:17:03;12.30;;;6.07;;
40959;SDS011;27842;52.272;8.052;2022-07-30T05:19:29;16.60;;;7.25;;
40959;SDS011;27842;52.272;8.052;2022-07-30T05:21:54;14.48;;;7.15;;
40959;SDS011;27842;52.272;8.052;2022-07-30T05:24:20;13.73;;;6.90;;
40959;SDS011;27842;52.272;8.052;2022-07-30T05:26:46;14.90;;;7.03;;
40959;SDS011;27842;52.272;8.052;2022-07-30T05:29:12;14.90;;;6.78;;
40959;SDS011;27842;52.272;8.052;2022-07-30T05:31:38;15.98;;;7.25;;
40959;SDS011;27842;52.272;8.052;2022-07-30T05:34:05;17.50;;;8.00;;
40959;SDS011;27842;52.272;8.052;2022-07-30T05:36:30;21.75;;;8.90;;
40959;SDS011;27842;52.272;8.052;2022-07-30T05:38:56;14.60;;;6.75;;
40959;SDS011;27842;52.272;8.052;2022-07-30T05:41:22;15.68;;;7.75;;
40959;SDS011;27842;52.272;8.052;2022-07-30T05:43:48;17.65;;;7.90;;
40959;SDS011;27842;52.272;8.052;2022-07-30T05:46:14;15.13;;;7.75;;
40959;SDS011;27842;52.272;8.052;2022-07-30T05:48:39;14.90;;;7.50;;
40959;SDS011;27842;52.272;8.052;2022-07-30T05:51:05;15.25;;;7.47;;
40959;SDS011;27842;52.272;8.052;2022-07-30T05:53:30;16.35;;;8.27;;
40959;SDS011;27842;52.272;8.052;2022-07-30T05:55:56;15.80;;;8.27;;
40959;SDS011;27842;52.272;8.052;2022-07-30T05:58:22;15.52;;;7.95;;
40959;SDS011;27842;52.272;8.052;2022-07-30T06:00:48;14.98;;;8.02;;
40959;SDS011;27842;52.272;8.052;2022-07-30T06:03:13;15.93;;;7.45;;
40959;SDS011;27842;52.272;8.052;2022-07-30T06:05:39;18.98;;;8.38;;
40959;SDS011;27842;52.272;8.052;2022-07-30T06:08:05;18.15;;;7.45;;
40959;SDS011;27842;52.272;8.052;2022-07-30T06:10:30;16.10;;;7.80;;
40959;SDS011;27842;52.272;8.052;2022-07-30T06:12:56;16.33;;;8.23;;
40959;SDS011;27842;52.272;8.052;2022-07-30T06:15:22;16.60;;;8.25;;
40959;SDS011;27842;52.272;8.052;2022-07-30T06:17:47;15.77;;;7.60;;
40959;SDS011;27842;52.272;8.052;2022-07-30T06:20:13;16.45;;;8.20;;
40959;SDS011;27842;52.272;8.052;2022-07-30T06:22:40;16.85;;;7.85;;
40959;SDS011;27842;52.272;8.052;2022-07-30T06:25:06;15.98;;;7.90;;
40959;SDS011;27842;52.272;8.052;2022-07-30T06:27:33;17.15;;;7.35;;
40959;SDS011;27842;52.272;8.052;2022-07-30T06:29:59;18.40;;;7.72;;
40959;SDS011;27842;52.272;8.052;2022-07-30T06:32:25;16.00;;;7.57;;
40959;SDS011;27842;52.272;8.052;2022-07-30T06:34:50;15.35;;;6.70;;
40959;SDS011;27842;52.272;8.052;2022-07-30T06:37:16;15.27;;;6.43;;
40959;SDS011;27842;52.272;8.052;2022-07-30T06:39:41;14.07;;;6.10;;
40959;SDS011;27842;52.272;8.052;2022-07-30T06:42:07;16.90;;;6.78;;
40959;SDS011;27842;52.272;8.052;2022-07-30T06:44:32;17.05;;;6.57;;
40959;SDS011;27842;52.272;8.052;2022-07-30T06:46:58;15.60;;;6.28;;
40959;SDS011;27842;52.272;8.052;2022-07-30T06:49:24;15.55;;;6.57;;
40959;SDS011;27842;52.272;8.052;2022-07-30T06:51:49;14.88;;;5.75;;
40959;SDS011;27842;52.272;8.052;2022-07-30T06:54:15;14.63;;;6.03;;
40959;SDS011;27842;52.272;8.052;2022-07-30T06:56:40;13.45;;;6.20;;
40959;SDS011;27842;52.272;8.052;2022-07-30T06:59:06;12.77;;;5.75;;
40959;SDS011;27842;52.272;8.052;2022-07-30T07:01:32;13.77;;;5.57;;
40959;SDS011;27842;52.272;8.052;2022-07-30T07:03:57;15.93;;;5.93;;
40959;SDS011;27842;52.272;8.052;2022-07-30T07:06:23;14.45;;;6.43;;
40959;SDS011;27842;52.272;8.052;2022-07-30T07:08:48;14.02;;;5.47;;
40959;SDS011;27842;52.272;8.052;2022-07-30T07:11:14;13.75;;;5.25;;
40959;SDS011;27842;52.272;8.052;2022-07-30T07:13:39;14.80;;;5.95;;
40959;SDS011;27842;52.272;8.052;2022-07-30T07:16:05;15.18;;;5.85;;
40959;SDS011;27842;52.272;8.052;2022-07-30T07:18:30;16.33;;;6.30;;
40959;SDS011;27842;52.272;8.052;2022-07-30T07:20:56;13.60;;;5.50;;
40959;SDS011;27842;52.272;8.052;2022-07-30T07:23:22;16.13;;;6.05;;
40959;SDS011;27842;52.272;8.052;2022-07-30T07:25:47;15.65;;;6.30;;
40959;SDS011;27842;52.272;8.052;2022-07-30T07:28:13;14.98;;;6.28;;
40959;SDS011;27842;52.272;8.052;2022-07-30T07:30:39;14.32;;;6.30;;
40959;SDS011;27842;52.272;8.052;2022-07-30T07:33:05;18.52;;;6.90;;
40959;SDS011;27842;52.272;8.052;2022-07-30T07:35:32;16.50;;;7.20;;
40959;SDS011;27842;52.272;8.052;2022-07-30T07:37:57;13.40;;;6.00;;
40959;SDS011;27842;52.272;8.052;2022-07-30T07:40:23;14.63;;;6.35;;
40959;SDS011;27842;52.272;8.052;2022-07-30T07:42:48;15.30;;;6.72;;
40959;SDS011;27842;52.272;8.052;2022-07-30T07:45:14;14.98;;;6.57;;
40959;SDS011;27842;52.272;8.052;2022-07-30T07:47:43;17.13;;;6.47;;
40959;SDS011;27842;52.272;8.052;2022-07-30T07:50:13;16.30;;;7.13;;
40959;SDS011;27842;52.272;8.052;2022-07-30T07:52:40;18.55;;;6.80;;
40959;SDS011;27842;52.272;8.052;2022-07-30T07:55:06;13.30;;;6.55;;
40959;SDS011;27842;52.272;8.052;2022-07-30T07:57:42;18.33;;;7.18;;
40959;SDS011;27842;52.272;8.052;2022-07-30T08:00:09;16.40;;;6.38;;
40959;SDS011;27842;52.272;8.052;2022-07-30T08:02:37;20.33;;;6.53;;
40959;SDS011;27842;52.272;8.052;2022-07-30T08:05:03;14.23;;;5.97;;
40959;SDS011;27842;52.272;8.052;2022-07-30T08:07:30;15.85;;;6.28;;
40959;SDS011;27842;52.272;8.052;2022-07-30T08:09:56;17.38;;;7.03;;
40959;SDS011;27842;52.272;8.052;2022-07-30T08:12:21;17.23;;;6.18;;
40959;SDS011;27842;52.272;8.052;2022-07-30T08:14:47;13.57;;;6.05;;
40959;SDS011;27842;52.272;8.052;2022-07-30T08:17:13;15.02;;;6.35;;
40959;SDS011;27842;52.272;8.052;2022-07-30T08:19:39;14.05;;;5.93;;
40959;SDS011;27842;52.272;8.052;2022-07-30T08:22:05;15.45;;;6.80;;
40959;SDS011;27842;52.272;8.052;2022-07-30T08:24:30;15.43;;;6.00;;
40959;SDS011;27842;52.272;8.052;2022-07-30T08:26:56;12.57;;;5.60;;
40959;SDS011;27842;52.272;8.052;2022-07-30T08:29:22;14.95;;;6.47;;
40959;SDS011;27842;52.272;8.052;2022-07-30T08:31:48;15.20;;;5.90;;
40959;SDS011;27842;52.272;8.052;2022-07-30T08:34:13;16.30;;;6.63;;
40959;SDS011;27842;52.272;8.052;2022-07-30T08:36:39;16.20;;;6.57;;
40959;SDS011;27842;52.272;8.052;2022-07-30T08:39:06;15.02;;;6.03;;
40959;SDS011;27842;52.272;8.052;2022-07-30T08:41:31;19.55;;;6.82;;
40959;SDS011;27842;52.272;8.052;2022-07-30T08:43:58;13.82;;;5.97;;
40959;SDS011;27842;52.272;8.052;2022-07-30T08:46:26;15.20;;;6.15;;
40959;SDS011;27842;52.272;8.052;2022-07-30T08:48:55;16.95;;;6.05;;
40959;SDS011;27842;52.272;8.052;2022-07-30T08:51:21;14.35;;;5.97;;
40959;SDS011;27842;52.272;8.052;2022-07-30T08:53:47;18.60;;;6.05;;
40959;SDS011;27842;52.272;8.052;2022-07-30T08:56:13;13.88;;;6.03;;
40959;SDS011;27842;52.272;8.052;2022-07-30T08:58:39;13.98;;;5.38;;
40959;SDS011;27842;52.272;8.052;2022-07-30T09:01:06;16.05;;;5.32;;
40959;SDS011;27842;52.272;8.052;2022-07-30T09:03:32;15.73;;;5.25;;
40959;SDS011;27842;52.272;8.052;2022-07-30T09:05:59;14.65;;;5.05;;
40959;SDS011;27842;52.272;8.052;2022-07-30T09:08:26;16.60;;;4.75;;
40959;SDS011;27842;52.272;8.052;2022-07-30T09:10:52;16.20;;;4.22;;
40959;SDS011;27842;52.272;8.052;2022-07-30T09:13:28;14.68;;;5.60;;
40959;SDS011;27842;52.272;8.052;2022-07-30T09:15:55;11.80;;;4.43;;
40959;SDS011;27842;52.272;8.052;2022-07-30T09:18:38;14.88;;;4.63;;
40959;SDS011;27842;52.272;8.052;2022-07-30T09:21:18;14.40;;;4.55;;
40959;SDS011;27842;52.272;8.052;2022-07-30T09:23:58;16.67;;;4.60;;
40959;SDS011;27842;52.272;8.052;2022-07-30T09:26:30;12.48;;;4.82;;
40959;SDS011;27842;52.272;8.052;2022-07-30T09:29:15;14.75;;;5.00;;
40959;SDS011;27842;52.272;8.052;2022-07-30T09:31:51;15.50;;;5.70;;
40959;SDS011;27842;52.272;8.052;2022-07-30T09:34:38;14.88;;;4.50;;
40959;SDS011;27842;52.272;8.052;2022-07-30T09:39:39;12.02;;;4.40;;
40959;SDS011;27842;52.272;8.052;2022-07-30T09:42:16;12.73;;;4.20;;
40959;SDS011;27842;52.272;8.052;2022-07-30T09:44:44;13.48;;;4.07;;
40959;SDS011;27842;52.272;8.052;2022-07-30T09:47:09;12.43;;;3.58;;
40959;SDS011;27842;52.272;8.052;2022-07-30T09:50:00;10.57;;;3.60;;
40959;SDS011;27842;52.272;8.052;2022-07-30T09:52:30;13.40;;;4.00;;
40959;SDS011;27842;52.272;8.052;2022-07-30T09:54:56;11.70;;;3.92;;
40959;SDS011;27842;52.272;8.052;2022-07-30T09:57:22;15.52;;;4.22;;
40959;SDS011;27842;52.272;8.052;2022-07-30T09:59:47;16.83;;;4.18;;
40959;SDS011;27842;52.272;8.052;2022-07-30T10:02:13;12.20;;;3.45;;
40959;SDS011;27842;52.272;8.052;2022-07-30T10:04:39;12.07;;;3.83;;
40959;SDS011;27842;52.272;8.052;2022-07-30T10:07:05;15.48;;;4.10;;
40959;SDS011;27842;52.272;8.052;2022-07-30T10:09:44;11.50;;;3.25;;
40959;SDS011;27842;52.272;8.052;2022-07-30T10:12:13;12.68;;;3.60;;
40959;SDS011;27842;52.272;8.052;2022-07-30T10:14:41;15.38;;;4.00;;
40959;SDS011;27842;52.272;8.052;2022-07-30T10:17:09;10.43;;;3.72;;
40959;SDS011;27842;52.272;8.052;2022-07-30T10:19:36;9.65;;;3.80;;
40959;SDS011;27842;52.272;8.052;2022-07-30T10:22:02;11.85;;;3.67;;
40959;SDS011;27842;52.272;8.052;2022-07-30T10:24:29;12.52;;;3.53;;
40959;SDS011;27842;52.272;8.052;2022-07-30T10:26:55;8.68;;;3.22;;
40959;SDS011;27842;52.272;8.052;2022-07-30T10:29:21;16.70;;;3.60;;
40959;SDS011;27842;52.272;8.052;2022-07-30T10:31:47;8.27;;;3.10;;
40959;SDS011;27842;52.272;8.052;2022-07-30T10:34:14;11.50;;;3.60;;
40959;SDS011;27842;52.272;8.052;2022-07-30T10:36:45;11.85;;;3.20;;
40959;SDS011;27842;52.272;8.052;2022-07-30T10:39:19;9.48;;;3.33;;
40959;SDS011;27842;52.272;8.052;2022-07-30T10:47:10;12.18;;;3.67;;
40959;SDS011;27842;52.272;8.052;2022-07-30T10:49:38;11.02;;;3.05;;
40959;SDS011;27842;52.272;8.052;2022-07-30T10:52:04;13.20;;;3.08;;
40959;SDS011;27842;52.272;8.052;2022-07-30T10:54:34;11.60;;;3.50;;
40959;SDS011;27842;52.272;8.052;2022-07-30T10:57:17;10.05;;;3.28;;
40959;SDS011;27842;52.272;8.052;2022-07-30T11:02:19;12.00;;;3.88;;
40959;SDS011;27842;52.272;8.052;2022-07-30T11:04:45;11.50;;;3.42;;
40959;SDS011;27842;52.272;8.052;2022-07-30T11:09:46;12.00;;;3.10;;
40959;SDS011;27842;52.272;8.052;2022-07-30T11:12:12;11.57;;;3.00;;
40959;SDS011;27842;52.272;8.052;2022-07-30T11:17:10;12.15;;;3.42;;
40959;SDS011;27842;52.272;8.052;2022-07-30T11:27:49;9.00;;;3.15;;
40959;SDS011;27842;52.272;8.052;2022-07-30T11:32:41;11.07;;;3.20;;
40959;SDS011;27842;52.272;8.052;2022-07-30T11:40:22;11.05;;;2.80;;
40959;SDS011;27842;52.272;8.052;2022-07-30T11:42:49;8.65;;;2.60;;
40959;SDS011;27842;52.272;8.052;2022-07-30T11:47:45;11.27;;;2.83;;
40959;SDS011;27842;52.272;8.052;2022-07-30T11:52:47;11.98;;;2.80;;
40959;SDS011;27842;52.272;8.052;2022-07-30T11:55:20;9.15;;;2.67;;
40959;SDS011;27842;52.272;8.052;2022-07-30T11:57:47;11.73;;;3.85;;
40959;SDS011;27842;52.272;8.052;2022-07-30T12:00:12;10.18;;;3.25;;
40959;SDS011;27842;52.272;8.052;2022-07-30T12:02:38;7.97;;;2.40;;
40959;SDS011;27842;52.272;8.052;2022-07-30T12:05:04;9.18;;;2.80;;
40959;SDS011;27842;52.272;8.052;2022-07-30T12:07:30;11.73;;;2.90;;
40959;SDS011;27842;52.272;8.052;2022-07-30T12:10:15;5.63;;;2.35;;
40959;SDS011;27842;52.272;8.052;2022-07-30T12:12:42;9.57;;;3.20;;
40959;SDS011;27842;52.272;8.052;2022-07-30T12:15:08;9.30;;;3.10;;
40959;SDS011;27842;52.272;8.052;2022-07-30T12:17:44;7.22;;;2.70;;
40959;SDS011;27842;52.272;8.052;2022-07-30T12:20:17;10.55;;;2.92;;
40959;SDS011;27842;52.272;8.052;2022-07-30T12:22:43;9.60;;;2.70;;
40959;SDS011;27842;52.272;8.052;2022-07-30T12:25:10;8.77;;;3.25;;
40959;SDS011;27842;52.272;8.052;2022-07-30T12:27:36;11.77;;;3.10;;
40959;SDS011;27842;52.272;8.052;2022-07-30T12:30:03;11.52;;;2.88;;
40959;SDS011;27842;52.272;8.052;2022-07-30T12:32:29;10.23;;;2.83;;
40959;SDS011;27842;52.272;8.052;2022-07-30T12:34:55;9.15;;;2.80;;
40959;SDS011;27842;52.272;8.052;2022-07-30T12:37:22;12.73;;;4.82;;
40959;SDS011;27842;52.272;8.052;2022-07-30T12:42:47;7.97;;;2.60;;
40959;SDS011;27842;52.272;8.052;2022-07-30T12:45:33;8.15;;;2.80;;
40959;SDS011;27842;52.272;8.052;2022-07-30T12:47:59;14.32;;;3.33;;
40959;SDS011;27842;52.272;8.052;2022-07-30T12:50:25;13.40;;;2.50;;
40959;SDS011;27842;52.272;8.052;2022-07-30T12:52:52;9.35;;;3.08;;
40959;SDS011;27842;52.272;8.052;2022-07-30T12:55:30;8.90;;;2.47;;
40959;SDS011;27842;52.272;8.052;2022-07-30T12:58:00;7.90;;;2.90;;
40959;SDS011;27842;52.272;8.052;2022-07-30T13:05:47;7.15;;;2.53;;
40959;SDS011;27842;52.272;8.052;2022-07-30T13:08:17;10.65;;;3.50;;
40959;SDS011;27842;52.272;8.052;2022-07-30T13:10:58;8.30;;;2.83;;
40959;SDS011;27842;52.272;8.052;2022-07-30T13:13:27;10.60;;;2.60;;
40959;SDS011;27842;52.272;8.052;2022-07-30T13:15:59;9.15;;;2.70;;
40959;SDS011;27842;52.272;8.052;2022-07-30T13:18:27;8.07;;;2.30;;
40959;SDS011;27842;52.272;8.052;2022-07-30T13:20:55;6.97;;;2.67;;
40959;SDS011;27842;52.272;8.052;2022-07-30T13:23:21;7.55;;;2.42;;
40959;SDS011;27842;52.272;8.052;2022-07-30T13:25:48;8.68;;;2.72;;
40959;SDS011;27842;52.272;8.052;2022-07-30T13:28:14;10.50;;;3.08;;
40959;SDS011;27842;52.272;8.052;2022-07-30T13:30:40;11.35;;;2.50;;
40959;SDS011;27842;52.272;8.052;2022-07-30T13:33:06;10.23;;;2.70;;
40959;SDS011;27842;52.272;8.052;2022-07-30T13:35:32;10.70;;;2.70;;
40959;SDS011;27842;52.272;8.052;2022-07-30T13:37:57;9.75;;;2.70;;
40959;SDS011;27842;52.272;8.052;2022-07-30T13:40:25;8.82;;;2.53;;
40959;SDS011;27842;52.272;8.052;2022-07-30T13:42:51;9.77;;;2.80;;
40959;SDS011;27842;52.272;8.052;2022-07-30T13:45:17;11.40;;;3.42;;
40959;SDS011;27842;52.272;8.052;2022-07-30T13:47:43;12.23;;;2.90;;
40959;SDS011;27842;52.272;8.052;2022-07-30T13:50:09;15.75;;;2.85;;
40959;SDS011;27842;52.272;8.052;2022-07-30T13:52:34;9.77;;;2.40;;
40959;SDS011;27842;52.272;8.052;2022-07-30T13:55:03;6.00;;;2.00;;
40959;SDS011;27842;52.272;8.052;2022-07-30T13:57:29;7.97;;;2.40;;
40959;SDS011;27842;52.272;8.052;2022-07-30T13:59:58;11.85;;;2.67;;
40959;SDS011;27842;52.272;8.052;2022-07-30T14:02:25;6.63;;;2.13;;
40959;SDS011;27842;52.272;8.052;2022-07-30T14:04:54;8.52;;;2.40;;
40959;SDS011;27842;52.272;8.052;2022-07-30T14:07:19;8.20;;;2.53;;
40959;SDS011;27842;52.272;8.052;2022-07-30T14:09:45;9.88;;;2.72;;
40959;SDS011;27842;52.272;8.052;2022-07-30T14:12:11;9.60;;;2.83;;
40959;SDS011;27842;52.272;8.052;2022-07-30T14:14:37;11.07;;;2.75;;
40959;SDS011;27842;52.272;8.052;2022-07-30T14:17:02;7.65;;;2.30;;
40959;SDS011;27842;52.272;8.052;2022-07-30T14:19:32;9.55;;;2.60;;
40959;SDS011;27842;52.272;8.052;2022-07-30T14:21:59;10.75;;;2.58;;
40959;SDS011;27842;52.272;8.052;2022-07-30T14:24:28;7.95;;;2.47;;
40959;SDS011;27842;52.272;8.052;2022-07-30T14:27:03;8.27;;;2.28;;
40959;SDS011;27842;52.272;8.052;2022-07-30T14:29:29;8.20;;;2.47;;
40959;SDS011;27842;52.272;8.052;2022-07-30T14:31:55;9.60;;;2.85;;
40959;SDS011;27842;52.272;8.052;2022-07-30T14:34:21;7.70;;;2.80;;
40959;SDS011;27842;52.272;8.052;2022-07-30T14:36:57;7.85;;;2.55;;
40959;SDS011;27842;52.272;8.052;2022-07-30T14:39:24;10.23;;;2.08;;
40959;SDS011;27842;52.272;8.052;2022-07-30T14:42:21;12.40;;;2.50;;
40959;SDS011;27842;52.272;8.052;2022-07-30T14:44:52;9.25;;;2.40;;
40959;SDS011;27842;52.272;8.052;2022-07-30T14:47:24;8.60;;;2.42;;
40959;SDS011;27842;52.272;8.052;2022-07-30T14:50:15;9.05;;;2.95;;
40959;SDS011;27842;52.272;8.052;2022-07-30T14:52:41;12.73;;;2.70;;
40959;SDS011;27842;52.272;8.052;2022-07-30T14:55:08;6.65;;;2.08;;
40959;SDS011;27842;52.272;8.052;2022-07-30T14:57:37;11.80;;;2.22;;
40959;SDS011;27842;52.272;8.052;2022-07-30T15:00:03;7.10;;;2.10;;
40959;SDS011;27842;52.272;8.052;2022-07-30T15:02:32;10.02;;;2.25;;
40959;SDS011;27842;52.272;8.052;2022-07-30T15:04:57;7.38;;;1.90;;
40959;SDS011;27842;52.272;8.052;2022-07-30T15:07:23;11.48;;;2.47;;
40959;SDS011;27842;52.272;8.052;2022-07-30T15:09:49;8.98;;;2.20;;
40959;SDS011;27842;52.272;8.052;2022-07-30T15:12:15;6.20;;;1.88;;
40959;SDS011;27842;52.272;8.052;2022-07-30T15:14:41;10.75;;;1.98;;
40959;SDS011;27842;52.272;8.052;2022-07-30T15:17:10;6.10;;;1.80;;
40959;SDS011;27842;52.272;8.052;2022-07-30T15:19:42;7.85;;;2.25;;
40959;SDS011;27842;52.272;8.052;2022-07-30T15:22:08;10.75;;;2.05;;
40959;SDS011;27842;52.272;8.052;2022-07-30T15:24:34;5.43;;;1.80;;
40959;SDS011;27842;52.272;8.052;2022-07-30T15:27:09;7.60;;;1.90;;
40959;SDS011;27842;52.272;8.052;2022-07-30T15:29:35;5.43;;;1.75;;
40959;SDS011;27842;52.272;8.052;2022-07-30T15:32:01;7.78;;;1.90;;